Port Chicago, California
Current Conditions -  °F | °C
As of 2:53 PM on Wednesday 26 Nov 2014 (Local Time) from KCCR Reporting Station
Clear Clear  
Wind Chill: 68°   Ceiling: Unl
Heat Index: 68°   Visibility: 7mi
Dew Point: 47°   Wind: 7mph
Humidity: 47%   Direction: 20°NNE
Pressure: 30.23"   Gusts: NA
Location:  38.0121°N, 121.92°W
Report Text: KCCR 262253Z 02006KT 7SM CLR 20/08 A3023 RMK AO2 SLP221 T02000083
Loading
Personal Weather Stations






























Interactive Weather Map New forecast layout! Learn more

10-Day Weather Forecast

Advertisements
Track Severe Weather on mobile